Detroit Metropolitan Wayne County Airport
KDTW : now visible

Airfield :











YOU CAN JOIN US ON...

 
LOGIN :

Register | Disclaimer

   EN    FR    IT 

 









Legend :    VFR   Marginal VFR   IFR   Intensive IFR   Very Intensive IFR
Visi :
Ceiling :
>= 8 km
>= 3000ft
5 to 8 km
1000 to 3000 ft
1500m to 5 km
500 to 1000 ft
800 to 1500m
200 to 500 ft
< 800m
< 200 ft
Symbols :   Thunderstorms  Fog  Heavy snow  Heavy precipitations  Wind > 20 kt







- Airport Elevation : 645 ft
- IATA code : DTW


KDTW - Detroit Metropolitan Wayne County

CURRENT METAR :
  • 160853Z 34008KT 10SM OVC020 M05/M11 A3002 RMK AO2 SLP173 T10501106 52003

EXPIRED METARs :
  • 160753Z 31007KT 10SM OVC020 M06/M11 A3001 RMK AO2 SLP171 T10561106
  • 160653Z 30007KT 10SM OVC023 M06/M11 A3001 RMK AO2 SLP172 T10611106

TAF KDTW
Valid from the 16 at 09:00 until the 17 at 12:00 UTC


160910Z 1609/1712 33007KT P6SM OVC020
FM161600 35005KT P6SM SCT028
FM170000 02005KT P6SM SCT250
FM171000 04007KT P6SM SCT120 OVC150
KZOB FIR / North America



MET'MAP, your aeronautical weather chart ! - Copyright ORBIFLY December 2007 - Disclaimer

ORBIFLY MET'MAP TEAM :

Programming & Development : Alexandra Zaïnal
Concept & Development : Baudouin d'Aumeries
Co-Development & Prog : Marc-Olivier Méhu
Technical & hardware support : Manuel Goepfert

Contact : metmap@orbifly.com




SOURCES & CREDITS :

   NOAA       Earth
Advisory